TimeEDT,TemperatureF,Dew PointF,Humidity,Sea Level PressureIn,VisibilityMPH,Wind Direction,Wind SpeedMPH,Gust SpeedMPH,PrecipitationIn,Events,Conditions,WindDirDegrees,DateUTC
12:53 AM,73.0,66.0,79,30.04,10.0,South,4.6,-,N/A,,Clear,190,2012-10-03 04:53:00
1:53 AM,73.0,66.0,79,30.04,10.0,Calm,Calm,-,N/A,,Clear,0,2012-10-03 05:53:00
2:53 AM,71.1,66.0,84,30.04,10.0,Calm,Calm,-,N/A,,Clear,0,2012-10-03 06:53:00
4:53 AM,71.1,66.9,87,30.05,10.0,Calm,Calm,-,N/A,,Partly Cloudy,0,2012-10-03 08:53:00
5:53 AM,71.1,66.0,84,30.07,10.0,Calm,Calm,-,N/A,,Clear,0,2012-10-03 09:53:00
6:53 AM,71.1,66.0,84,30.09,10.0,Calm,Calm,-,N/A,,Clear,0,2012-10-03 10:53:00
7:53 AM,71.1,66.0,84,30.10,10.0,Calm,Calm,-,N/A,,Mostly Cloudy,0,2012-10-03 11:53:00
8:53 AM,73.0,66.9,81,30.11,10.0,Calm,Calm,-,N/A,,Mostly Cloudy,0,2012-10-03 12:53:00
9:53 AM,75.9,66.0,71,30.14,10.0,Calm,Calm,-,N/A,,Mostly Cloudy,0,2012-10-03 13:53:00
10:53 AM,75.0,69.1,82,30.16,8.0,Calm,Calm,-,0.01,Rain,Light Rain,0,2012-10-03 14:53:00
11:49 AM,73.4,68.0,83,30.15,0.8,Calm,Calm,-,0.14,Rain,Heavy Rain,0,2012-10-03 15:49:00
11:53 AM,73.0,68.0,84,30.17,0.8,Calm,Calm,-,0.15,Rain,Heavy Rain,0,2012-10-03 15:53:00
11:55 AM,71.6,68.0,88,30.15,2.5,Calm,Calm,-,0.01,Rain,Heavy Rain,0,2012-10-03 15:55:00
12:38 PM,75.2,69.8,83,30.14,2.5,Calm,Calm,-,0.06,Rain,Light Rain,0,2012-10-03 16:38:00
12:45 PM,75.2,68.0,78,30.14,3.0,Calm,Calm,-,0.06,Rain,Light Rain,0,2012-10-03 16:45:00
12:53 PM,75.0,69.1,82,30.16,3.0,Calm,Calm,-,0.06,Rain,Light Rain,0,2012-10-03 16:53:00
1:53 PM,75.0,66.9,76,30.14,10.0,Calm,Calm,-,0.00,Rain,Light Rain,0,2012-10-03 17:53:00
2:53 PM,75.0,66.9,76,30.13,9.0,Calm,Calm,-,0.01,Rain,Light Rain,0,2012-10-03 18:53:00
3:53 PM,75.9,68.0,76,30.13,10.0,Calm,Calm,-,0.00,,Overcast,0,2012-10-03 19:53:00
4:53 PM,75.9,69.1,79,30.14,10.0,Calm,Calm,-,0.00,Rain,Light Rain,0,2012-10-03 20:53:00
5:53 PM,75.0,70.0,84,30.14,8.0,Calm,Calm,-,0.02,Rain,Light Rain,0,2012-10-03 21:53:00
6:53 PM,73.9,68.0,82,30.15,10.0,Calm,Calm,-,0.01,Rain,Light Rain,0,2012-10-03 22:53:00
7:53 PM,73.0,68.0,84,30.17,9.0,SE,3.5,-,0.01,Rain,Light Rain,130,2012-10-03 23:53:00
9:50 PM,71.6,66.2,83,30.17,10.0,Calm,Calm,-,0.02,Rain,Light Rain,0,2012-10-04 01:50:00
9:53 PM,71.1,66.0,84,30.19,10.0,Calm,Calm,-,0.02,,Mostly Cloudy,0,2012-10-04 01:53:00
10:00 PM,71.6,66.2,83,30.18,10.0,Calm,Calm,-,N/A,,Mostly Cloudy,0,2012-10-04 02:00:00
10:53 PM,71.1,66.9,87,30.21,10.0,Calm,Calm,-,0.00,Rain,Light Rain,0,2012-10-04 02:53:00
11:53 PM,71.1,66.9,87,30.22,9.0,North,3.5,-,0.02,Rain,Light Rain,360,2012-10-04 03:53:00